sensor_id;sensor_type;location;lat;lon;timestamp;P1;durP1;ratioP1;P2;durP2;ratioP2
75386;SDS011;63966;47.914;22.266;2023-11-21T00:02:31;34.67;;;17.33;;
75386;SDS011;63966;47.914;22.266;2023-11-21T00:05:35;32.63;;;15.60;;
75386;SDS011;63966;47.914;22.266;2023-11-21T00:08:38;29.07;;;14.87;;
75386;SDS011;63966;47.914;22.266;2023-11-21T00:11:42;25.17;;;14.38;;
75386;SDS011;63966;47.914;22.266;2023-11-21T00:14:46;27.20;;;14.38;;
75386;SDS011;63966;47.914;22.266;2023-11-21T00:17:54;26.75;;;15.50;;
75386;SDS011;63966;47.914;22.266;2023-11-21T00:20:57;28.00;;;14.97;;
75386;SDS011;63966;47.914;22.266;2023-11-21T00:24:01;27.23;;;13.63;;
75386;SDS011;63966;47.914;22.266;2023-11-21T00:27:05;28.27;;;14.43;;
75386;SDS011;63966;47.914;22.266;2023-11-21T00:30:08;25.00;;;14.27;;
75386;SDS011;63966;47.914;22.266;2023-11-21T00:33:12;26.02;;;14.27;;
75386;SDS011;63966;47.914;22.266;2023-11-21T00:36:16;22.33;;;13.27;;
75386;SDS011;63966;47.914;22.266;2023-11-21T00:39:20;25.13;;;14.43;;
75386;SDS011;63966;47.914;22.266;2023-11-21T00:42:27;25.58;;;13.80;;
75386;SDS011;63966;47.914;22.266;2023-11-21T00:45:37;25.98;;;13.90;;
75386;SDS011;63966;47.914;22.266;2023-11-21T00:48:47;25.63;;;13.95;;
75386;SDS011;63966;47.914;22.266;2023-11-21T00:51:56;24.27;;;13.03;;
75386;SDS011;63966;47.914;22.266;2023-11-21T00:55:05;23.50;;;14.10;;
75386;SDS011;63966;47.914;22.266;2023-11-21T00:58:11;21.85;;;13.02;;
75386;SDS011;63966;47.914;22.266;2023-11-21T01:01:15;23.88;;;13.35;;
75386;SDS011;63966;47.914;22.266;2023-11-21T01:04:27;21.90;;;12.13;;
75386;SDS011;63966;47.914;22.266;2023-11-21T01:07:33;23.23;;;12.73;;
75386;SDS011;63966;47.914;22.266;2023-11-21T01:10:41;21.00;;;11.90;;
75386;SDS011;63966;47.914;22.266;2023-11-21T01:13:44;22.60;;;12.60;;
75386;SDS011;63966;47.914;22.266;2023-11-21T01:16:51;24.90;;;12.77;;
75386;SDS011;63966;47.914;22.266;2023-11-21T01:19:57;22.85;;;12.43;;
75386;SDS011;63966;47.914;22.266;2023-11-21T01:23:01;22.60;;;12.63;;
75386;SDS011;63966;47.914;22.266;2023-11-21T01:26:08;29.60;;;13.93;;
75386;SDS011;63966;47.914;22.266;2023-11-21T01:29:16;30.85;;;16.25;;
75386;SDS011;63966;47.914;22.266;2023-11-21T01:32:23;66.47;;;24.90;;
75386;SDS011;63966;47.914;22.266;2023-11-21T01:35:53;52.58;;;20.88;;
75386;SDS011;63966;47.914;22.266;2023-11-21T01:39:16;43.50;;;20.67;;
75386;SDS011;63966;47.914;22.266;2023-11-21T01:42:26;39.77;;;17.80;;
75386;SDS011;63966;47.914;22.266;2023-11-21T01:45:35;40.72;;;17.60;;
75386;SDS011;63966;47.914;22.266;2023-11-21T01:48:46;41.35;;;18.42;;
75386;SDS011;63966;47.914;22.266;2023-11-21T01:51:51;37.28;;;18.45;;
75386;SDS011;63966;47.914;22.266;2023-11-21T01:55:15;36.83;;;18.73;;
75386;SDS011;63966;47.914;22.266;2023-11-21T01:58:31;40.00;;;18.47;;
75386;SDS011;63966;47.914;22.266;2023-11-21T02:01:39;34.03;;;17.58;;
75386;SDS011;63966;47.914;22.266;2023-11-21T02:05:20;36.00;;;16.60;;
75386;SDS011;63966;47.914;22.266;2023-11-21T02:08:24;33.72;;;16.52;;
75386;SDS011;63966;47.914;22.266;2023-11-21T02:11:36;38.67;;;16.70;;
75386;SDS011;63966;47.914;22.266;2023-11-21T02:14:44;34.47;;;15.97;;
75386;SDS011;63966;47.914;22.266;2023-11-21T02:17:52;36.40;;;15.98;;
75386;SDS011;63966;47.914;22.266;2023-11-21T02:20:58;32.53;;;17.05;;
75386;SDS011;63966;47.914;22.266;2023-11-21T02:24:17;29.13;;;14.95;;
75386;SDS011;63966;47.914;22.266;2023-11-21T02:27:26;28.60;;;14.70;;
75386;SDS011;63966;47.914;22.266;2023-11-21T02:30:33;30.53;;;15.33;;
75386;SDS011;63966;47.914;22.266;2023-11-21T02:33:37;22.52;;;11.90;;
75386;SDS011;63966;47.914;22.266;2023-11-21T02:36:41;24.30;;;11.93;;
75386;SDS011;63966;47.914;22.266;2023-11-21T02:39:46;20.73;;;11.00;;
75386;SDS011;63966;47.914;22.266;2023-11-21T02:42:50;21.43;;;10.97;;
75386;SDS011;63966;47.914;22.266;2023-11-21T02:46:14;21.80;;;11.03;;
75386;SDS011;63966;47.914;22.266;2023-11-21T02:49:17;19.27;;;10.30;;
75386;SDS011;63966;47.914;22.266;2023-11-21T02:52:21;25.02;;;11.07;;
75386;SDS011;63966;47.914;22.266;2023-11-21T02:55:24;18.48;;;10.13;;
75386;SDS011;63966;47.914;22.266;2023-11-21T02:58:28;52.50;;;12.57;;
75386;SDS011;63966;47.914;22.266;2023-11-21T03:01:32;48.00;;;15.55;;
75386;SDS011;63966;47.914;22.266;2023-11-21T03:04:35;84.00;;;15.00;;
75386;SDS011;63966;47.914;22.266;2023-11-21T03:07:39;26.73;;;13.13;;
75386;SDS011;63966;47.914;22.266;2023-11-21T03:10:43;24.48;;;13.05;;
75386;SDS011;63966;47.914;22.266;2023-11-21T03:13:46;26.77;;;14.27;;
75386;SDS011;63966;47.914;22.266;2023-11-21T03:16:50;27.73;;;15.25;;
75386;SDS011;63966;47.914;22.266;2023-11-21T03:19:53;26.63;;;14.63;;
75386;SDS011;63966;47.914;22.266;2023-11-21T03:22:57;26.10;;;12.80;;
75386;SDS011;63966;47.914;22.266;2023-11-21T03:26:02;16.55;;;10.88;;
75386;SDS011;63966;47.914;22.266;2023-11-21T03:29:06;22.80;;;10.73;;
75386;SDS011;63966;47.914;22.266;2023-11-21T03:32:09;19.83;;;11.30;;
75386;SDS011;63966;47.914;22.266;2023-11-21T03:35:13;19.77;;;10.85;;
75386;SDS011;63966;47.914;22.266;2023-11-21T03:38:17;20.75;;;11.27;;
75386;SDS011;63966;47.914;22.266;2023-11-21T03:41:21;17.63;;;10.70;;
75386;SDS011;63966;47.914;22.266;2023-11-21T03:44:25;23.13;;;12.10;;
75386;SDS011;63966;47.914;22.266;2023-11-21T03:47:28;23.23;;;13.47;;
75386;SDS011;63966;47.914;22.266;2023-11-21T03:50:31;27.42;;;12.45;;
75386;SDS011;63966;47.914;22.266;2023-11-21T03:53:35;20.73;;;11.95;;
75386;SDS011;63966;47.914;22.266;2023-11-21T03:56:39;24.20;;;11.35;;
75386;SDS011;63966;47.914;22.266;2023-11-21T03:59:42;26.37;;;11.33;;
75386;SDS011;63966;47.914;22.266;2023-11-21T04:02:46;29.30;;;13.18;;
75386;SDS011;63966;47.914;22.266;2023-11-21T04:05:50;25.85;;;13.43;;
75386;SDS011;63966;47.914;22.266;2023-11-21T04:08:53;26.45;;;13.95;;
75386;SDS011;63966;47.914;22.266;2023-11-21T04:11:57;25.45;;;12.48;;
75386;SDS011;63966;47.914;22.266;2023-11-21T04:15:00;24.20;;;12.00;;
75386;SDS011;63966;47.914;22.266;2023-11-21T04:18:04;24.63;;;12.23;;
75386;SDS011;63966;47.914;22.266;2023-11-21T04:21:08;26.67;;;13.38;;
75386;SDS011;63966;47.914;22.266;2023-11-21T04:24:11;21.83;;;12.75;;
75386;SDS011;63966;47.914;22.266;2023-11-21T04:27:15;24.27;;;12.30;;
75386;SDS011;63966;47.914;22.266;2023-11-21T04:30:20;27.60;;;12.30;;
75386;SDS011;63966;47.914;22.266;2023-11-21T04:33:23;26.80;;;12.82;;
75386;SDS011;63966;47.914;22.266;2023-11-21T04:36:27;22.48;;;11.73;;
75386;SDS011;63966;47.914;22.266;2023-11-21T04:39:32;21.33;;;10.90;;
75386;SDS011;63966;47.914;22.266;2023-11-21T04:42:36;19.55;;;10.63;;
75386;SDS011;63966;47.914;22.266;2023-11-21T04:45:40;19.90;;;10.37;;
75386;SDS011;63966;47.914;22.266;2023-11-21T04:48:43;18.20;;;9.98;;
75386;SDS011;63966;47.914;22.266;2023-11-21T04:51:47;19.55;;;10.65;;
75386;SDS011;63966;47.914;22.266;2023-11-21T04:54:50;24.15;;;11.23;;
75386;SDS011;63966;47.914;22.266;2023-11-21T04:57:56;22.75;;;12.15;;
75386;SDS011;63966;47.914;22.266;2023-11-21T05:00:59;30.50;;;15.33;;
75386;SDS011;63966;47.914;22.266;2023-11-21T05:04:04;24.83;;;13.80;;
75386;SDS011;63966;47.914;22.266;2023-11-21T05:07:11;25.15;;;13.73;;
75386;SDS011;63966;47.914;22.266;2023-11-21T05:10:14;26.52;;;13.30;;
75386;SDS011;63966;47.914;22.266;2023-11-21T05:13:18;20.70;;;11.18;;
75386;SDS011;63966;47.914;22.266;2023-11-21T05:16:24;18.40;;;10.63;;
75386;SDS011;63966;47.914;22.266;2023-11-21T05:19:30;22.63;;;11.52;;
75386;SDS011;63966;47.914;22.266;2023-11-21T05:22:35;20.08;;;11.30;;
75386;SDS011;63966;47.914;22.266;2023-11-21T05:25:43;20.35;;;10.30;;
75386;SDS011;63966;47.914;22.266;2023-11-21T05:28:48;23.10;;;9.70;;
75386;SDS011;63966;47.914;22.266;2023-11-21T05:31:52;17.63;;;9.43;;
75386;SDS011;63966;47.914;22.266;2023-11-21T05:34:56;17.58;;;9.23;;
75386;SDS011;63966;47.914;22.266;2023-11-21T05:38:04;18.27;;;9.43;;
75386;SDS011;63966;47.914;22.266;2023-11-21T05:41:28;21.58;;;9.88;;
75386;SDS011;63966;47.914;22.266;2023-11-21T05:44:31;19.52;;;9.55;;
75386;SDS011;63966;47.914;22.266;2023-11-21T05:47:36;19.33;;;10.17;;
75386;SDS011;63966;47.914;22.266;2023-11-21T05:50:41;20.15;;;8.98;;
75386;SDS011;63966;47.914;22.266;2023-11-21T05:53:48;23.55;;;11.20;;
75386;SDS011;63966;47.914;22.266;2023-11-21T05:56:51;24.42;;;12.32;;
75386;SDS011;63966;47.914;22.266;2023-11-21T05:59:55;19.83;;;9.43;;
75386;SDS011;63966;47.914;22.266;2023-11-21T06:02:58;22.20;;;12.43;;
75386;SDS011;63966;47.914;22.266;2023-11-21T06:06:02;21.52;;;10.32;;
75386;SDS011;63966;47.914;22.266;2023-11-21T06:09:06;23.27;;;11.82;;
75386;SDS011;63966;47.914;22.266;2023-11-21T06:12:11;41.95;;;18.70;;
75386;SDS011;63966;47.914;22.266;2023-11-21T06:15:17;29.60;;;16.17;;
75386;SDS011;63966;47.914;22.266;2023-11-21T06:18:25;29.90;;;16.23;;
75386;SDS011;63966;47.914;22.266;2023-11-21T06:21:32;28.15;;;14.23;;
75386;SDS011;63966;47.914;22.266;2023-11-21T06:24:36;27.75;;;14.45;;
75386;SDS011;63966;47.914;22.266;2023-11-21T06:27:43;24.25;;;13.32;;
75386;SDS011;63966;47.914;22.266;2023-11-21T06:30:48;28.65;;;15.35;;
75386;SDS011;63966;47.914;22.266;2023-11-21T06:33:52;31.03;;;15.60;;
75386;SDS011;63966;47.914;22.266;2023-11-21T06:36:57;21.52;;;11.75;;
75386;SDS011;63966;47.914;22.266;2023-11-21T06:40:01;24.80;;;12.45;;
75386;SDS011;63966;47.914;22.266;2023-11-21T06:43:08;26.42;;;13.32;;
75386;SDS011;63966;47.914;22.266;2023-11-21T06:46:13;27.40;;;14.30;;
75386;SDS011;63966;47.914;22.266;2023-11-21T06:49:21;33.13;;;18.17;;
75386;SDS011;63966;47.914;22.266;2023-11-21T06:52:25;25.63;;;14.10;;
75386;SDS011;63966;47.914;22.266;2023-11-21T06:55:29;27.73;;;13.98;;
75386;SDS011;63966;47.914;22.266;2023-11-21T06:58:33;25.17;;;13.60;;
75386;SDS011;63966;47.914;22.266;2023-11-21T07:01:37;26.88;;;13.80;;
75386;SDS011;63966;47.914;22.266;2023-11-21T07:04:41;26.17;;;13.63;;
75386;SDS011;63966;47.914;22.266;2023-11-21T07:07:45;27.67;;;15.23;;
75386;SDS011;63966;47.914;22.266;2023-11-21T07:10:52;32.90;;;17.23;;
75386;SDS011;63966;47.914;22.266;2023-11-21T07:13:55;34.92;;;19.58;;
75386;SDS011;63966;47.914;22.266;2023-11-21T07:16:59;39.53;;;21.38;;
75386;SDS011;63966;47.914;22.266;2023-11-21T07:20:03;39.20;;;22.63;;
75386;SDS011;63966;47.914;22.266;2023-11-21T07:23:07;45.63;;;22.47;;
75386;SDS011;63966;47.914;22.266;2023-11-21T07:26:11;47.17;;;23.95;;
75386;SDS011;63966;47.914;22.266;2023-11-21T07:29:14;48.00;;;24.17;;
75386;SDS011;63966;47.914;22.266;2023-11-21T07:32:18;43.05;;;22.58;;
75386;SDS011;63966;47.914;22.266;2023-11-21T07:35:21;50.60;;;28.73;;
75386;SDS011;63966;47.914;22.266;2023-11-21T07:38:26;59.67;;;39.90;;
75386;SDS011;63966;47.914;22.266;2023-11-21T07:41:30;42.38;;;23.83;;
75386;SDS011;63966;47.914;22.266;2023-11-21T07:44:34;44.30;;;24.23;;
75386;SDS011;63966;47.914;22.266;2023-11-21T07:47:38;36.28;;;20.83;;
75386;SDS011;63966;47.914;22.266;2023-11-21T07:50:42;38.43;;;20.97;;
75386;SDS011;63966;47.914;22.266;2023-11-21T07:53:45;60.63;;;31.03;;
75386;SDS011;63966;47.914;22.266;2023-11-21T07:56:49;68.07;;;33.95;;
75386;SDS011;63966;47.914;22.266;2023-11-21T07:59:52;62.80;;;31.55;;
75386;SDS011;63966;47.914;22.266;2023-11-21T08:02:56;64.05;;;32.15;;
75386;SDS011;63966;47.914;22.266;2023-11-21T08:06:00;55.00;;;29.93;;
75386;SDS011;63966;47.914;22.266;2023-11-21T08:09:05;42.93;;;24.03;;
75386;SDS011;63966;47.914;22.266;2023-11-21T08:12:10;37.17;;;20.27;;
75386;SDS011;63966;47.914;22.266;2023-11-21T08:15:14;36.00;;;21.08;;
75386;SDS011;63966;47.914;22.266;2023-11-21T08:18:17;38.50;;;23.33;;
75386;SDS011;63966;47.914;22.266;2023-11-21T08:21:21;37.20;;;20.47;;
75386;SDS011;63966;47.914;22.266;2023-11-21T08:24:27;31.37;;;17.43;;
75386;SDS011;63966;47.914;22.266;2023-11-21T08:27:30;29.42;;;16.58;;
75386;SDS011;63966;47.914;22.266;2023-11-21T08:30:34;27.45;;;16.42;;
75386;SDS011;63966;47.914;22.266;2023-11-21T08:33:38;29.63;;;17.00;;
75386;SDS011;63966;47.914;22.266;2023-11-21T08:36:44;39.93;;;22.07;;
75386;SDS011;63966;47.914;22.266;2023-11-21T08:39:48;47.33;;;27.20;;
75386;SDS011;63966;47.914;22.266;2023-11-21T08:42:51;28.13;;;15.65;;
75386;SDS011;63966;47.914;22.266;2023-11-21T08:45:55;30.10;;;18.00;;
75386;SDS011;63966;47.914;22.266;2023-11-21T08:48:58;26.70;;;14.80;;
75386;SDS011;63966;47.914;22.266;2023-11-21T08:52:05;22.23;;;13.27;;
75386;SDS011;63966;47.914;22.266;2023-11-21T08:55:08;20.07;;;12.17;;
75386;SDS011;63966;47.914;22.266;2023-11-21T08:58:14;18.85;;;11.57;;
75386;SDS011;63966;47.914;22.266;2023-11-21T09:01:18;24.83;;;14.90;;
75386;SDS011;63966;47.914;22.266;2023-11-21T09:04:21;28.58;;;18.65;;
75386;SDS011;63966;47.914;22.266;2023-11-21T09:07:25;46.13;;;22.03;;
75386;SDS011;63966;47.914;22.266;2023-11-21T09:10:29;62.87;;;30.00;;
75386;SDS011;63966;47.914;22.266;2023-11-21T09:13:32;38.05;;;21.90;;
75386;SDS011;63966;47.914;22.266;2023-11-21T09:16:36;30.83;;;19.15;;
75386;SDS011;63966;47.914;22.266;2023-11-21T09:19:41;28.35;;;14.43;;
75386;SDS011;63966;47.914;22.266;2023-11-21T09:22:47;25.23;;;14.93;;
75386;SDS011;63966;47.914;22.266;2023-11-21T09:25:51;23.67;;;15.23;;
75386;SDS011;63966;47.914;22.266;2023-11-21T09:28:59;24.90;;;13.52;;
75386;SDS011;63966;47.914;22.266;2023-11-21T09:32:05;21.35;;;13.23;;
75386;SDS011;63966;47.914;22.266;2023-11-21T09:35:10;22.50;;;14.68;;
75386;SDS011;63966;47.914;22.266;2023-11-21T09:38:17;26.87;;;15.30;;
75386;SDS011;63966;47.914;22.266;2023-11-21T09:41:23;23.33;;;13.90;;
75386;SDS011;63966;47.914;22.266;2023-11-21T09:48:08;21.77;;;13.75;;
75386;SDS011;63966;47.914;22.266;2023-11-21T09:51:13;25.30;;;13.25;;
75386;SDS011;63966;47.914;22.266;2023-11-21T09:54:18;21.33;;;12.00;;
75386;SDS011;63966;47.914;22.266;2023-11-21T09:57:25;21.37;;;12.23;;
75386;SDS011;63966;47.914;22.266;2023-11-21T10:00:29;22.25;;;13.57;;
75386;SDS011;63966;47.914;22.266;2023-11-21T10:03:36;23.15;;;13.68;;
75386;SDS011;63966;47.914;22.266;2023-11-21T10:06:41;21.63;;;12.45;;
75386;SDS011;63966;47.914;22.266;2023-11-21T10:09:48;23.77;;;13.33;;
75386;SDS011;63966;47.914;22.266;2023-11-21T10:12:54;23.33;;;11.97;;
75386;SDS011;63966;47.914;22.266;2023-11-21T10:16:00;23.90;;;12.50;;
75386;SDS011;63966;47.914;22.266;2023-11-21T10:19:09;26.25;;;12.50;;
75386;SDS011;63966;47.914;22.266;2023-11-21T10:22:18;21.00;;;11.85;;
75386;SDS011;63966;47.914;22.266;2023-11-21T10:25:24;20.63;;;11.67;;
75386;SDS011;63966;47.914;22.266;2023-11-21T10:28:27;21.63;;;12.30;;
75386;SDS011;63966;47.914;22.266;2023-11-21T10:31:31;18.23;;;10.05;;
75386;SDS011;63966;47.914;22.266;2023-11-21T10:34:35;20.95;;;10.85;;
75386;SDS011;63966;47.914;22.266;2023-11-21T10:37:39;17.67;;;10.93;;
75386;SDS011;63966;47.914;22.266;2023-11-21T10:40:43;21.60;;;12.67;;
75386;SDS011;63966;47.914;22.266;2023-11-21T10:43:49;20.63;;;10.70;;
75386;SDS011;63966;47.914;22.266;2023-11-21T10:46:58;17.85;;;10.55;;
75386;SDS011;63966;47.914;22.266;2023-11-21T10:50:05;19.38;;;10.70;;
75386;SDS011;63966;47.914;22.266;2023-11-21T10:53:11;20.60;;;12.15;;
75386;SDS011;63966;47.914;22.266;2023-11-21T10:56:15;19.00;;;10.80;;
75386;SDS011;63966;47.914;22.266;2023-11-21T10:59:23;20.33;;;11.07;;
75386;SDS011;63966;47.914;22.266;2023-11-21T11:02:29;19.40;;;10.38;;
75386;SDS011;63966;47.914;22.266;2023-11-21T11:05:36;17.20;;;10.65;;
75386;SDS011;63966;47.914;22.266;2023-11-21T11:08:40;18.60;;;11.10;;
75386;SDS011;63966;47.914;22.266;2023-11-21T11:11:44;16.63;;;10.73;;
75386;SDS011;63966;47.914;22.266;2023-11-21T11:14:48;18.37;;;10.93;;
75386;SDS011;63966;47.914;22.266;2023-11-21T11:17:54;18.80;;;10.15;;
75386;SDS011;63966;47.914;22.266;2023-11-21T11:21:07;16.48;;;9.57;;
75386;SDS011;63966;47.914;22.266;2023-11-21T11:24:25;18.88;;;10.63;;
75386;SDS011;63966;47.914;22.266;2023-11-21T11:27:54;19.53;;;10.70;;
75386;SDS011;63966;47.914;22.266;2023-11-21T11:31:14;18.17;;;10.23;;
75386;SDS011;63966;47.914;22.266;2023-11-21T11:34:29;18.67;;;11.32;;
75386;SDS011;63966;47.914;22.266;2023-11-21T11:37:35;19.02;;;11.05;;
75386;SDS011;63966;47.914;22.266;2023-11-21T11:40:40;20.10;;;9.82;;
75386;SDS011;63966;47.914;22.266;2023-11-21T11:43:44;18.57;;;10.23;;
75386;SDS011;63966;47.914;22.266;2023-11-21T11:46:48;21.63;;;11.20;;
75386;SDS011;63966;47.914;22.266;2023-11-21T11:50:08;21.77;;;12.13;;
75386;SDS011;63966;47.914;22.266;2023-11-21T11:53:19;20.40;;;12.23;;
75386;SDS011;63966;47.914;22.266;2023-11-21T11:59:28;26.23;;;12.73;;
75386;SDS011;63966;47.914;22.266;2023-11-21T12:02:31;21.43;;;12.00;;
75386;SDS011;63966;47.914;22.266;2023-11-21T12:05:37;21.25;;;11.93;;
75386;SDS011;63966;47.914;22.266;2023-11-21T12:08:47;21.48;;;11.60;;
75386;SDS011;63966;47.914;22.266;2023-11-21T12:11:51;21.52;;;12.10;;
75386;SDS011;63966;47.914;22.266;2023-11-21T12:14:57;21.53;;;12.40;;
75386;SDS011;63966;47.914;22.266;2023-11-21T12:18:01;26.23;;;13.27;;
75386;SDS011;63966;47.914;22.266;2023-11-21T12:21:05;21.80;;;12.60;;
75386;SDS011;63966;47.914;22.266;2023-11-21T12:24:12;22.42;;;11.98;;
75386;SDS011;63966;47.914;22.266;2023-11-21T12:27:16;25.42;;;12.85;;
75386;SDS011;63966;47.914;22.266;2023-11-21T12:30:21;23.47;;;12.27;;
75386;SDS011;63966;47.914;22.266;2023-11-21T12:33:25;19.67;;;11.43;;
75386;SDS011;63966;47.914;22.266;2023-11-21T12:36:31;23.08;;;12.38;;
75386;SDS011;63966;47.914;22.266;2023-11-21T12:39:37;21.10;;;12.18;;
75386;SDS011;63966;47.914;22.266;2023-11-21T12:42:41;21.48;;;12.23;;
75386;SDS011;63966;47.914;22.266;2023-11-21T12:45:45;20.47;;;12.57;;
75386;SDS011;63966;47.914;22.266;2023-11-21T12:48:49;23.73;;;13.47;;
75386;SDS011;63966;47.914;22.266;2023-11-21T12:51:53;25.23;;;13.35;;
75386;SDS011;63966;47.914;22.266;2023-11-21T12:54:59;24.52;;;13.25;;
75386;SDS011;63966;47.914;22.266;2023-11-21T12:58:08;24.50;;;12.88;;
75386;SDS011;63966;47.914;22.266;2023-11-21T13:01:14;23.63;;;13.43;;
75386;SDS011;63966;47.914;22.266;2023-11-21T13:04:28;23.63;;;13.00;;
75386;SDS011;63966;47.914;22.266;2023-11-21T13:07:40;20.67;;;13.30;;
75386;SDS011;63966;47.914;22.266;2023-11-21T13:10:50;25.20;;;13.00;;
75386;SDS011;63966;47.914;22.266;2023-11-21T13:13:56;19.05;;;12.27;;
75386;SDS011;63966;47.914;22.266;2023-11-21T13:17:00;24.17;;;13.33;;
75386;SDS011;63966;47.914;22.266;2023-11-21T13:20:04;21.40;;;13.10;;
75386;SDS011;63966;47.914;22.266;2023-11-21T13:23:11;22.42;;;13.38;;
75386;SDS011;63966;47.914;22.266;2023-11-21T13:26:14;22.75;;;13.20;;
75386;SDS011;63966;47.914;22.266;2023-11-21T13:29:18;28.67;;;15.13;;
75386;SDS011;63966;47.914;22.266;2023-11-21T13:32:23;27.23;;;16.70;;
75386;SDS011;63966;47.914;22.266;2023-11-21T13:35:27;30.70;;;16.47;;
75386;SDS011;63966;47.914;22.266;2023-11-21T13:38:40;28.63;;;17.08;;
75386;SDS011;63966;47.914;22.266;2023-11-21T13:41:48;38.33;;;21.05;;
75386;SDS011;63966;47.914;22.266;2023-11-21T13:44:57;32.97;;;17.13;;
75386;SDS011;63966;47.914;22.266;2023-11-21T13:48:00;34.17;;;17.57;;
75386;SDS011;63966;47.914;22.266;2023-11-21T13:51:05;30.00;;;18.80;;
75386;SDS011;63966;47.914;22.266;2023-11-21T13:54:19;31.30;;;18.30;;
75386;SDS011;63966;47.914;22.266;2023-11-21T13:57:24;32.47;;;18.73;;
75386;SDS011;63966;47.914;22.266;2023-11-21T14:00:29;32.53;;;17.95;;
75386;SDS011;63966;47.914;22.266;2023-11-21T14:03:47;43.23;;;20.90;;
75386;SDS011;63966;47.914;22.266;2023-11-21T14:06:59;47.13;;;22.43;;
75386;SDS011;63966;47.914;22.266;2023-11-21T14:10:16;29.92;;;18.85;;
75386;SDS011;63966;47.914;22.266;2023-11-21T14:13:24;29.80;;;17.27;;
75386;SDS011;63966;47.914;22.266;2023-11-21T14:16:28;39.35;;;19.58;;
75386;SDS011;63966;47.914;22.266;2023-11-21T14:19:31;37.20;;;20.63;;
75386;SDS011;63966;47.914;22.266;2023-11-21T14:22:36;35.97;;;19.60;;
75386;SDS011;63966;47.914;22.266;2023-11-21T14:25:40;32.00;;;18.02;;
75386;SDS011;63966;47.914;22.266;2023-11-21T14:28:44;38.35;;;21.02;;
75386;SDS011;63966;47.914;22.266;2023-11-21T14:31:47;41.15;;;21.50;;
75386;SDS011;63966;47.914;22.266;2023-11-21T14:34:53;42.80;;;22.40;;
75386;SDS011;63966;47.914;22.266;2023-11-21T14:37:56;38.67;;;21.17;;
75386;SDS011;63966;47.914;22.266;2023-11-21T14:41:01;48.92;;;24.52;;
75386;SDS011;63966;47.914;22.266;2023-11-21T14:44:05;42.75;;;22.60;;
75386;SDS011;63966;47.914;22.266;2023-11-21T14:47:14;40.15;;;22.10;;
75386;SDS011;63966;47.914;22.266;2023-11-21T14:50:19;46.83;;;24.13;;
75386;SDS011;63966;47.914;22.266;2023-11-21T14:53:41;40.43;;;21.27;;
75386;SDS011;63966;47.914;22.266;2023-11-21T14:56:56;38.83;;;20.77;;
75386;SDS011;63966;47.914;22.266;2023-11-21T15:00:00;41.17;;;21.05;;
75386;SDS011;63966;47.914;22.266;2023-11-21T15:03:12;38.55;;;20.58;;
75386;SDS011;63966;47.914;22.266;2023-11-21T15:07:56;47.60;;;23.77;;
75386;SDS011;63966;47.914;22.266;2023-11-21T15:11:11;60.97;;;29.67;;
75386;SDS011;63966;47.914;22.266;2023-11-21T15:14:18;65.85;;;30.77;;
75386;SDS011;63966;47.914;22.266;2023-11-21T15:17:27;61.92;;;30.10;;
75386;SDS011;63966;47.914;22.266;2023-11-21T15:20:33;40.13;;;22.38;;
75386;SDS011;63966;47.914;22.266;2023-11-21T15:23:37;56.97;;;25.00;;
75386;SDS011;63966;47.914;22.266;2023-11-21T15:27:00;44.53;;;23.23;;
75386;SDS011;63966;47.914;22.266;2023-11-21T15:30:06;46.92;;;23.05;;
75386;SDS011;63966;47.914;22.266;2023-11-21T15:33:10;37.38;;;19.00;;
75386;SDS011;63966;47.914;22.266;2023-11-21T15:36:34;35.88;;;17.45;;
75386;SDS011;63966;47.914;22.266;2023-11-21T15:39:38;41.27;;;19.73;;
75386;SDS011;63966;47.914;22.266;2023-11-21T15:42:42;38.47;;;18.30;;
75386;SDS011;63966;47.914;22.266;2023-11-21T15:45:47;35.30;;;18.15;;
75386;SDS011;63966;47.914;22.266;2023-11-21T15:48:51;32.72;;;17.90;;
75386;SDS011;63966;47.914;22.266;2023-11-21T15:51:56;39.78;;;18.88;;
75386;SDS011;63966;47.914;22.266;2023-11-21T15:55:02;34.63;;;17.67;;
75386;SDS011;63966;47.914;22.266;2023-11-21T15:58:05;36.97;;;17.90;;
75386;SDS011;63966;47.914;22.266;2023-11-21T16:01:09;144.05;;;62.47;;
75386;SDS011;63966;47.914;22.266;2023-11-21T16:04:15;59.97;;;28.00;;
75386;SDS011;63966;47.914;22.266;2023-11-21T16:07:20;50.75;;;24.17;;
75386;SDS011;63966;47.914;22.266;2023-11-21T16:10:23;88.10;;;43.90;;
75386;SDS011;63966;47.914;22.266;2023-11-21T16:13:26;76.43;;;40.50;;
75386;SDS011;63966;47.914;22.266;2023-11-21T16:16:30;86.70;;;45.88;;
75386;SDS011;63966;47.914;22.266;2023-11-21T16:19:34;60.83;;;31.42;;
75386;SDS011;63966;47.914;22.266;2023-11-21T16:22:38;55.72;;;26.17;;
75386;SDS011;63966;47.914;22.266;2023-11-21T16:25:42;67.57;;;34.67;;
75386;SDS011;63966;47.914;22.266;2023-11-21T16:28:46;44.33;;;21.83;;
75386;SDS011;63966;47.914;22.266;2023-11-21T16:31:49;38.10;;;19.55;;
75386;SDS011;63966;47.914;22.266;2023-11-21T16:34:53;36.75;;;19.80;;
75386;SDS011;63966;47.914;22.266;2023-11-21T16:37:59;39.08;;;18.85;;
75386;SDS011;63966;47.914;22.266;2023-11-21T16:41:02;36.50;;;18.83;;
75386;SDS011;63966;47.914;22.266;2023-11-21T16:44:06;49.03;;;24.17;;
75386;SDS011;63966;47.914;22.266;2023-11-21T16:47:20;54.45;;;25.83;;
75386;SDS011;63966;47.914;22.266;2023-11-21T16:50:25;48.17;;;24.48;;
75386;SDS011;63966;47.914;22.266;2023-11-21T16:53:29;46.75;;;22.45;;
75386;SDS011;63966;47.914;22.266;2023-11-21T16:56:32;48.37;;;22.93;;
75386;SDS011;63966;47.914;22.266;2023-11-21T16:59:35;44.30;;;21.07;;
75386;SDS011;63966;47.914;22.266;2023-11-21T17:02:39;46.53;;;22.95;;
75386;SDS011;63966;47.914;22.266;2023-11-21T17:05:43;48.20;;;23.02;;
75386;SDS011;63966;47.914;22.266;2023-11-21T17:08:47;43.15;;;20.55;;
75386;SDS011;63966;47.914;22.266;2023-11-21T17:11:51;45.20;;;20.93;;
75386;SDS011;63966;47.914;22.266;2023-11-21T17:14:54;49.50;;;21.03;;
75386;SDS011;63966;47.914;22.266;2023-11-21T17:17:58;45.70;;;20.98;;
75386;SDS011;63966;47.914;22.266;2023-11-21T17:21:03;47.95;;;23.35;;
75386;SDS011;63966;47.914;22.266;2023-11-21T17:24:07;52.40;;;22.92;;
75386;SDS011;63966;47.914;22.266;2023-11-21T17:27:11;47.87;;;21.13;;
75386;SDS011;63966;47.914;22.266;2023-11-21T17:30:15;52.33;;;22.17;;
75386;SDS011;63966;47.914;22.266;2023-11-21T17:33:19;52.75;;;23.48;;
75386;SDS011;63966;47.914;22.266;2023-11-21T17:36:23;55.78;;;24.08;;
75386;SDS011;63966;47.914;22.266;2023-11-21T17:39:27;50.00;;;23.35;;
75386;SDS011;63966;47.914;22.266;2023-11-21T17:42:30;50.73;;;23.07;;
75386;SDS011;63966;47.914;22.266;2023-11-21T17:45:34;54.90;;;22.47;;
75386;SDS011;63966;47.914;22.266;2023-11-21T17:48:37;57.80;;;26.25;;
75386;SDS011;63966;47.914;22.266;2023-11-21T17:51:43;65.05;;;27.70;;
75386;SDS011;63966;47.914;22.266;2023-11-21T17:54:47;58.65;;;26.02;;
75386;SDS011;63966;47.914;22.266;2023-11-21T17:57:51;58.03;;;22.53;;
75386;SDS011;63966;47.914;22.266;2023-11-21T18:00:54;51.80;;;22.03;;